L. J. Sullivan — WDD4355 — position and weather

sailwx.info

Track history (hours):
 
Tides and Currents Weather Stations Pressure Air Temp Water Temp Dewpoint Dewpoint Depression Visibility Wind Speed Wind Dir Waves Ship Positions

L. J. Sullivan

Owner: American Commercial Lines LLC, Jeffersonville, IN. More information available from US FCC via Universal Licensing System and Coast Guard Vessel Documentation Center.

Last reported at 2018-May-06 22:50 UTC. Time now 2018-Jun-22 13:28 UTC.
Position N 38°37' W 090°11'.
Warning: this ship's position is 46 days out of date.

Length 46 m; draft 3 m.

Type: Towing. MMSI: 367143670.

Date/timePositionNaut miles runAvg speedWind from/ knotsBaromVisibWave heightAir tempDewpointWater temp
2018-May-06 22:50N 38°37' W 090°11'7 2.7
2018-May-06 20:06N 38°44' W 090°09'0 3.3
2018-May-06 20:00N 38°45' W 090°09'3 4.7
2018-May-06 19:22N 38°47' W 090°07'3 7.9
2018-May-06 19:00N 38°50' W 090°07'2 3.7
2018-May-06 18:20N 38°52' W 090°09'0 0.1
2018-May-06 17:29N 38°52' W 090°09'0 0.0
2018-May-06 16:56N 38°52' W 090°09'0 0.0
2018-May-06 16:29N 38°52' W 090°09'0 0.0
2018-May-06 15:59N 38°52' W 090°09'0 0.0
2018-May-06 15:29N 38°52' W 090°09'0 0.3
2018-May-06 14:59N 38°52' W 090°09'0 0.7
2018-May-06 14:29N 38°52' W 090°09'1 1.5
2018-May-06 14:00N 38°53' W 090°10'4 7.1
2018-May-06 13:30N 38°55' W 090°14'3 6.9
2018-May-06 13:00N 38°55' W 090°18'4 7.1
2018-May-06 12:30N 38°57' W 090°22'4 7.0
2018-May-06 12:00N 38°58' W 090°26'3 6.5
2018-May-06 11:30N 38°56' W 090°30'4 7.2
2018-May-06 11:00N 38°53' W 090°32'3 6.9
2018-May-06 10:30N 38°52' W 090°37'4 7.7
2018-May-06 10:00N 38°55' W 090°40'4 8.2
2018-May-06 09:30N 38°59' W 090°41'1 1.8
2018-May-06 09:00N 39°00' W 090°41'0 0.2
2018-May-06 08:30N 39°00' W 090°41'0 0.0
2018-May-06 08:00N 39°00' W 090°41'1 1.4
2018-May-06 07:30N 39°01' W 090°42'4 6.8
2018-May-06 06:59N 39°04' W 090°42'3 6.9
2018-May-06 06:29N 39°08' W 090°42'  
2018-Apr-28 20:28N 39°03' W 090°43'2 3.9
2018-Apr-28 20:00N 39°01' W 090°42'1 2.4
2018-Apr-28 19:30N 39°00' W 090°41'0 0.2
2018-Apr-28 18:51N 39°00' W 090°41'0 0.6
2018-Apr-28 18:26N 38°60' W 090°41'3 4.1
2018-Apr-28 17:44N 38°57' W 090°40'1 4.2
2018-Apr-28 17:30N 38°56' W 090°40'2 4.0
2018-Apr-28 17:00N 38°55' W 090°39'2 4.2
2018-Apr-28 16:30N 38°53' W 090°37'2 3.5
2018-Apr-28 16:00N 38°52' W 090°35'2 4.5
2018-Apr-28 15:30N 38°53' W 090°32'2 4.0
2018-Apr-28 15:00N 38°54' W 090°31'2 4.2
2018-Apr-28 14:30N 38°56' W 090°29'2 4.4
2018-Apr-28 14:00N 38°57' W 090°27'2 4.0
2018-Apr-28 13:30N 38°58' W 090°25'2 3.6
2018-Apr-28 13:00N 38°57' W 090°23'2 4.0
2018-Apr-28 12:30N 38°56' W 090°20'2 4.1
2018-Apr-28 12:00N 38°55' W 090°18'2 4.1
2018-Apr-28 11:30N 38°55' W 090°15'1 0.7
2018-Apr-28 10:15N 38°55' W 090°14'0 0.1
2018-Apr-28 10:00N 38°55' W 090°14'1 2.6
2018-Apr-28 09:30N 38°54' W 090°13'2 4.1
2018-Apr-28 09:00N 38°53' W 090°11'2 3.5
2018-Apr-28 08:28N 38°52' W 090°09'0 0.5
2018-Apr-28 07:58N 38°52' W 090°09'0 0.9
2018-Apr-28 07:30N 38°52' W 090°08'1 1.3
2018-Apr-28 06:59N 38°51' W 090°07'0 0.0
2018-Apr-28 06:29N 38°51' W 090°07'0 0.0
2018-Apr-28 05:59N 38°51' W 090°07'0 0.0
2018-Apr-28 05:29N 38°51' W 090°07'1 2.5
2018-Apr-28 05:00N 38°51' W 090°06'2 3.7
2018-Apr-28 04:30N 38°49' W 090°07'2 4.1
2018-Apr-28 04:00N 38°47' W 090°08'6 0.8
2018-Apr-27 20:38N 38°42' W 090°11'1 4.8
2018-Apr-27 20:30N 38°41' W 090°11'5 1.0
2018-Apr-27 15:28N 38°36' W 090°11'0 0.8
2018-Apr-27 14:59N 38°36' W 090°11'  
Track history (hours):
 
Tides and Currents Weather Stations Pressure Air Temp Water Temp Dewpoint Dewpoint Depression Visibility Wind Speed Wind Dir Waves Ship Positions

L. J. Sullivan

Owner: American Commercial Lines LLC, Jeffersonville, IN. More information available from US FCC via Universal Licensing System and Coast Guard Vessel Documentation Center.

Last reported at 2018-May-06 22:50 UTC. Time now 2018-Jun-22 13:28 UTC.
Position N 38°37' W 090°11'.
Warning: this ship's position is 46 days out of date.

Length 46 m; draft 3 m.

Type: Towing. MMSI: 367143670.

Date/timePositionNaut miles runAvg speedWind from/ knotsBaromVisibWave heightAir tempDewpointWater temp
2018-May-06 22:50N 38°37' W 090°11'7 2.7
2018-May-06 20:06N 38°44' W 090°09'0 3.3
2018-May-06 20:00N 38°45' W 090°09'3 4.7
2018-May-06 19:22N 38°47' W 090°07'3 7.9
2018-May-06 19:00N 38°50' W 090°07'2 3.7
2018-May-06 18:20N 38°52' W 090°09'0 0.1
2018-May-06 17:29N 38°52' W 090°09'0 0.0
2018-May-06 16:56N 38°52' W 090°09'0 0.0
2018-May-06 16:29N 38°52' W 090°09'0 0.0
2018-May-06 15:59N 38°52' W 090°09'0 0.0
2018-May-06 15:29N 38°52' W 090°09'0 0.3
2018-May-06 14:59N 38°52' W 090°09'0 0.7
2018-May-06 14:29N 38°52' W 090°09'1 1.5
2018-May-06 14:00N 38°53' W 090°10'4 7.1
2018-May-06 13:30N 38°55' W 090°14'3 6.9
2018-May-06 13:00N 38°55' W 090°18'4 7.1
2018-May-06 12:30N 38°57' W 090°22'4 7.0
2018-May-06 12:00N 38°58' W 090°26'3 6.5
2018-May-06 11:30N 38°56' W 090°30'4 7.2
2018-May-06 11:00N 38°53' W 090°32'3 6.9
2018-May-06 10:30N 38°52' W 090°37'4 7.7
2018-May-06 10:00N 38°55' W 090°40'4 8.2
2018-May-06 09:30N 38°59' W 090°41'1 1.8
2018-May-06 09:00N 39°00' W 090°41'0 0.2
2018-May-06 08:30N 39°00' W 090°41'0 0.0
2018-May-06 08:00N 39°00' W 090°41'1 1.4
2018-May-06 07:30N 39°01' W 090°42'4 6.8
2018-May-06 06:59N 39°04' W 090°42'3 6.9
2018-May-06 06:29N 39°08' W 090°42'  
2018-Apr-28 20:28N 39°03' W 090°43'2 3.9
2018-Apr-28 20:00N 39°01' W 090°42'1 2.4
2018-Apr-28 19:30N 39°00' W 090°41'0 0.2
2018-Apr-28 18:51N 39°00' W 090°41'0 0.6
2018-Apr-28 18:26N 38°60' W 090°41'3 4.1
2018-Apr-28 17:44N 38°57' W 090°40'1 4.2
2018-Apr-28 17:30N 38°56' W 090°40'2 4.0
2018-Apr-28 17:00N 38°55' W 090°39'2 4.2
2018-Apr-28 16:30N 38°53' W 090°37'2 3.5
2018-Apr-28 16:00N 38°52' W 090°35'2 4.5
2018-Apr-28 15:30N 38°53' W 090°32'2 4.0
2018-Apr-28 15:00N 38°54' W 090°31'2 4.2
2018-Apr-28 14:30N 38°56' W 090°29'2 4.4
2018-Apr-28 14:00N 38°57' W 090°27'2 4.0
2018-Apr-28 13:30N 38°58' W 090°25'2 3.6
2018-Apr-28 13:00N 38°57' W 090°23'2 4.0
2018-Apr-28 12:30N 38°56' W 090°20'2 4.1
2018-Apr-28 12:00N 38°55' W 090°18'2 4.1
2018-Apr-28 11:30N 38°55' W 090°15'1 0.7
2018-Apr-28 10:15N 38°55' W 090°14'0 0.1
2018-Apr-28 10:00N 38°55' W 090°14'1 2.6
2018-Apr-28 09:30N 38°54' W 090°13'2 4.1
2018-Apr-28 09:00N 38°53' W 090°11'2 3.5
2018-Apr-28 08:28N 38°52' W 090°09'0 0.5
2018-Apr-28 07:58N 38°52' W 090°09'0 0.9
2018-Apr-28 07:30N 38°52' W 090°08'1 1.3
2018-Apr-28 06:59N 38°51' W 090°07'0 0.0
2018-Apr-28 06:29N 38°51' W 090°07'0 0.0
2018-Apr-28 05:59N 38°51' W 090°07'0 0.0
2018-Apr-28 05:29N 38°51' W 090°07'1 2.5
2018-Apr-28 05:00N 38°51' W 090°06'2 3.7
2018-Apr-28 04:30N 38°49' W 090°07'2 4.1
2018-Apr-28 04:00N 38°47' W 090°08'6 0.8
2018-Apr-27 20:38N 38°42' W 090°11'1 4.8
2018-Apr-27 20:30N 38°41' W 090°11'5 1.0
2018-Apr-27 15:28N 38°36' W 090°11'0 0.8
2018-Apr-27 14:59N 38°36' W 090°11'  

Dump ship's entire track history